Time;durP1;ratioP1;P1;durP2;ratioP2;P2;SDS_P1;SDS_P2;PMS_P1;PMS_P2;Temp;Humidity;BMP_temperature;BMP_pressure;BME280_temperature;BME280_humidity;BME280_pressure;Samples;Min_cycle;Max_cycle;Signal;HPM_P1;HPM_P2
2020/12/12 00:00:28;;;;;;;58.90;15.63;;;;;;;1.79;76.73;94505.50;5130344;27;20047;-71
2020/12/12 00:02:54;;;;;;;55.78;14.68;;;;;;;1.75;77.01;94501.84;5130504;27;20457;-71
2020/12/12 00:05:20;;;;;;;49.10;14.43;;;;;;;1.73;76.88;94495.22;5129882;27;20039;-71
2020/12/12 00:07:46;;;;;;;52.65;15.55;;;;;;;1.72;76.87;94494.41;5130382;27;20039;-72
2020/12/12 00:10:12;;;;;;;46.58;14.65;;;;;;;1.78;76.96;94487.03;5130000;27;20100;-71
2020/12/12 00:12:39;;;;;;;50.08;15.25;;;;;;;1.78;76.84;94484.34;5133687;27;20027;-71
2020/12/12 00:15:05;;;;;;;51.40;15.45;;;;;;;1.76;76.89;94473.91;5133917;27;20053;-71
2020/12/12 00:17:31;;;;;;;47.05;15.35;;;;;;;1.77;76.96;94475.47;5134132;27;20554;-72
2020/12/12 00:19:57;;;;;;;54.92;15.52;;;;;;;1.75;76.87;94468.84;5134384;27;20061;-71
2020/12/12 00:22:23;;;;;;;51.92;15.15;;;;;;;1.72;76.86;94475.63;5133807;27;20490;-72
2020/12/12 00:24:50;;;;;;;60.30;16.20;;;;;;;1.72;77.01;94462.22;5134062;27;20043;-72
2020/12/12 00:27:16;;;;;;;57.45;16.50;;;;;;;1.73;77.05;94461.13;5133600;27;20490;-71
2020/12/12 00:29:43;;;;;;;48.75;15.20;;;;;;;1.72;76.89;94464.91;5133934;27;20042;-71
2020/12/12 00:32:09;;;;;;;55.42;14.90;;;;;;;1.74;76.91;94464.59;5133339;27;20047;-71
2020/12/12 00:34:35;;;;;;;59.47;15.05;;;;;;;1.73;77.08;94468.38;5133852;27;20043;-71
2020/12/12 00:37:01;;;;;;;44.45;14.63;;;;;;;1.75;77.15;94466.16;5133502;27;20632;-71
2020/12/12 00:39:27;;;;;;;61.42;16.08;;;;;;;1.76;77.06;94467.75;5133985;27;20047;-71
2020/12/12 00:41:53;;;;;;;52.15;14.88;;;;;;;1.73;77.02;94477.22;5133687;27;20043;-71
2020/12/12 00:44:19;;;;;;;46.33;15.15;;;;;;;1.71;77.14;94475.91;5133178;27;20047;-72
2020/12/12 00:46:46;;;;;;;54.85;15.75;;;;;;;1.71;77.05;94479.41;5133348;27;20043;-71
2020/12/12 00:49:13;;;;;;;62.85;15.32;;;;;;;1.75;77.04;94475.00;5133227;27;20047;-71
2020/12/12 00:51:39;;;;;;;42.22;14.27;;;;;;;1.76;77.09;94476.59;5133691;27;20695;-72
2020/12/12 00:54:06;;;;;;;50.05;15.05;;;;;;;1.75;77.27;94469.63;5132723;27;20055;-71
2020/12/12 00:56:32;;;;;;;54.70;15.13;;;;;;;1.74;77.06;94476.09;5133372;27;20039;-71
2020/12/12 00:58:58;;;;;;;53.33;15.25;;;;;;;1.75;76.96;94480.38;5133620;27;20043;-72
2020/12/12 01:01:24;;;;;;;60.30;16.15;;;;;;;1.75;76.82;94483.06;5132805;27;20047;-71
2020/12/12 01:03:51;;;;;;;60.30;16.75;;;;;;;1.72;76.95;94478.31;5133145;27;20039;-71
2020/12/12 01:06:18;;;;;;;53.58;15.77;;;;;;;1.71;76.89;94474.03;5132692;27;20070;-71
2020/12/12 01:08:45;;;;;;;69.47;15.70;;;;;;;1.74;76.75;94486.84;5132990;27;20043;-71
2020/12/12 01:11:13;;;;;;;56.38;15.00;;;;;;;1.76;77.05;94479.25;5132523;27;20043;-71
2020/12/12 01:13:39;;;;;;;51.30;15.32;;;;;;;1.78;77.05;94474.41;5133015;27;20039;-71
2020/12/12 01:16:06;;;;;;;64.68;15.93;;;;;;;1.78;76.97;94479.75;5132580;27;20143;-71
2020/12/12 01:18:32;;;;;;;53.85;15.57;;;;;;;1.74;76.80;94484.16;5132991;27;20091;-71
2020/12/12 01:20:59;;;;;;;53.05;15.23;;;;;;;1.75;76.95;94482.25;5132873;27;20469;-71
2020/12/12 01:23:25;;;;;;;71.60;16.75;;;;;;;1.77;77.02;94486.22;5131750;27;20054;-71
2020/12/12 01:25:51;;;;;;;54.95;15.68;;;;;;;1.78;76.93;94482.44;5132985;27;20506;-71
2020/12/12 01:28:19;;;;;;;59.88;16.35;;;;;;;1.79;76.83;94478.66;5132369;27;20043;-71
2020/12/12 01:30:45;;;;;;;61.55;16.08;;;;;;;1.81;76.91;94487.19;5132696;27;20047;-71
2020/12/12 01:33:11;;;;;;;49.13;15.52;;;;;;;1.78;76.96;94477.09;5132352;27;20490;-72
2020/12/12 01:35:37;;;;;;;58.33;15.55;;;;;;;1.78;77.03;94471.72;5111797;28;20127;-71
2020/12/12 01:38:04;;;;;;;56.95;15.85;;;;;;;1.79;77.00;94467.13;5111384;28;20043;-70
2020/12/12 01:40:30;;;;;;;58.33;15.57;;;;;;;1.84;76.96;94469.69;5112147;28;20411;-71
2020/12/12 01:42:56;;;;;;;59.20;16.50;;;;;;;1.83;76.72;94473.47;5111819;28;20100;-71
2020/12/12 01:45:22;;;;;;;52.13;15.82;;;;;;;1.86;76.93;94477.44;5111403;28;20390;-71
2020/12/12 01:47:48;;;;;;;59.63;15.93;;;;;;;1.86;76.84;94480.09;5111851;28;20513;-71
2020/12/12 01:50:14;;;;;;;57.92;16.70;;;;;;;1.81;76.81;94471.09;5111448;28;20457;-71
2020/12/12 01:52:40;;;;;;;58.70;16.35;;;;;;;1.80;76.75;94474.88;5111743;28;20055;-72
2020/12/12 01:55:07;;;;;;;59.15;15.85;;;;;;;1.81;76.82;94476.44;5111187;27;20050;-71
2020/12/12 01:57:34;;;;;;;53.38;15.65;;;;;;;1.83;76.94;94473.47;5111751;28;20044;-71
2020/12/12 02:00:01;;;;;;;49.28;15.50;;;;;;;1.82;76.74;94471.88;5111853;28;20047;-72
2020/12/12 02:02:27;;;;;;;53.33;16.23;;;;;;;1.79;76.58;94473.28;5111491;28;20518;-72
2020/12/12 02:04:55;;;;;;;61.78;17.08;;;;;;;1.80;76.90;94463.34;5111726;28;20051;-71
2020/12/12 02:07:23;;;;;;;57.83;16.33;;;;;;;1.78;76.92;94463.66;5110613;28;20047;-71
2020/12/12 02:09:49;;;;;;;57.20;16.35;;;;;;;1.78;76.82;94466.34;5111583;28;20402;-71
2020/12/12 02:12:17;;;;;;;74.25;16.90;;;;;;;1.75;76.95;94456.22;5109708;28;20043;-71
2020/12/12 02:14:43;;;;;;;60.50;16.55;;;;;;;1.74;77.01;94465.38;5111471;28;20375;-71
2020/12/12 02:17:11;;;;;;;56.42;15.90;;;;;;;1.72;77.05;94472.94;5110340;28;20050;-71
2020/12/12 02:19:37;;;;;;;68.60;17.25;;;;;;;1.67;77.16;94470.41;5111160;28;20487;-72
2020/12/12 02:22:07;;;;;;;43.50;15.77;;;;;;;1.67;77.19;94466.91;5111117;28;20583;-71
2020/12/12 02:24:34;;;;;;;57.03;15.27;;;;;;;1.65;77.15;94461.84;5110902;28;20070;-71
2020/12/12 02:27:01;;;;;;;56.25;15.70;;;;;;;1.64;77.17;94471.00;5111360;28;20063;-71
2020/12/12 02:29:38;;;;;;;58.25;15.48;;;;;;;1.60;77.22;94464.66;5111069;28;20066;-72
2020/12/12 02:32:04;;;;;;;42.40;14.75;;;;;;;1.56;77.33;94461.00;5110728;28;20040;-71
2020/12/12 02:34:30;;;;;;;48.85;16.55;;;;;;;1.52;77.39;94449.31;5121630;27;20039;-71
2020/12/12 02:36:56;;;;;;;55.88;16.77;;;;;;;1.47;77.54;94449.44;5131660;27;20043;-71
2020/12/12 02:39:23;;;;;;;54.38;16.02;;;;;;;1.47;77.62;94441.41;5131199;27;20076;-71
2020/12/12 02:41:49;;;;;;;58.38;15.05;;;;;;;1.45;77.39;94438.22;5131517;27;20043;-72
2020/12/12 02:44:15;;;;;;;54.28;15.00;;;;;;;1.43;77.51;94443.91;5131146;27;20104;-72
2020/12/12 02:46:41;;;;;;;57.63;16.63;;;;;;;1.40;77.47;94436.44;5131463;27;20066;-72
2020/12/12 02:49:07;;;;;;;59.70;15.85;;;;;;;1.37;77.63;94428.25;5130961;27;20512;-71
2020/12/12 02:51:38;;;;;;;148.35;21.50;;;;;;;1.28;77.91;94428.97;5127981;27;20046;-71
2020/12/12 02:54:04;;;;;;;61.47;17.35;;;;;;;1.20;78.02;94423.56;5110414;28;20051;-71
2020/12/12 02:56:31;;;;;;;61.90;17.10;;;;;;;1.18;78.11;94426.53;5110494;28;20148;-71
2020/12/12 02:58:57;;;;;;;48.15;15.60;;;;;;;1.17;78.20;94430.31;5119114;27;20046;-72
2020/12/12 03:01:24;;;;;;;52.33;16.17;;;;;;;1.14;78.21;94428.25;5130783;27;20046;-72
2020/12/12 03:03:50;;;;;;;63.50;16.42;;;;;;;1.11;78.34;94436.13;5131031;27;20410;-71
2020/12/12 03:06:16;;;;;;;56.65;16.38;;;;;;;1.08;78.31;94436.72;5130696;27;20043;-71
2020/12/12 03:08:42;;;;;;;81.45;19.50;;;;;;;1.06;78.68;94439.72;5130981;27;20039;-71
2020/12/12 03:11:08;;;;;;;56.75;16.85;;;;;;;1.06;78.75;94445.06;5130580;27;20043;-71
2020/12/12 03:13:35;;;;;;;63.55;16.92;;;;;;;1.03;78.94;94448.34;5131051;27;20039;-71
2020/12/12 03:16:01;;;;;;;61.72;16.85;;;;;;;1.03;79.02;94440.31;5130485;27;20046;-70
2020/12/12 03:18:27;;;;;;;64.68;17.25;;;;;;;1.02;79.13;94436.06;5131028;27;20046;-71
2020/12/12 03:20:53;;;;;;;61.63;17.95;;;;;;;1.03;79.14;94440.31;5130877;27;20483;-71
2020/12/12 03:23:19;;;;;;;61.30;17.20;;;;;;;1.04;79.36;94449.94;5130487;27;20131;-71
2020/12/12 03:25:45;;;;;;;66.65;18.30;;;;;;;1.04;79.43;94442.72;5130815;27;20043;-71
2020/12/12 03:28:11;;;;;;;70.20;18.02;;;;;;;1.05;79.43;94440.81;5129817;27;20123;-71
2020/12/12 03:30:38;;;;;;;66.38;17.60;;;;;;;1.06;79.29;94445.06;5130821;27;20051;-71
2020/12/12 03:33:04;;;;;;;69.85;19.35;;;;;;;1.00;79.18;94452.44;5130131;27;20039;-71
2020/12/12 03:35:31;;;;;;;63.50;17.05;;;;;;;0.99;79.32;94445.50;5130711;27;20456;-71
2020/12/12 03:37:58;;;;;;;66.57;18.25;;;;;;;1.02;79.60;94449.44;5130855;27;20127;-72
2020/12/12 03:40:24;;;;;;;63.25;17.98;;;;;;;1.02;79.48;94444.09;5130253;27;20044;-71
2020/12/12 03:42:51;;;;;;;66.35;17.88;;;;;;;1.01;79.64;94447.88;5130730;27;20043;-71
2020/12/12 03:45:17;;;;;;;59.67;17.85;;;;;;;1.01;79.82;94448.66;5130256;27;20485;-71
2020/12/12 03:47:44;;;;;;;66.55;18.35;;;;;;;1.02;79.86;94441.41;5134445;27;20043;-71
2020/12/12 03:50:10;;;;;;;65.88;18.50;;;;;;;1.02;79.82;94436.06;5134449;27;20047;-72
2020/12/12 03:52:36;;;;;;;65.32;18.20;;;;;;;1.01;79.73;94432.59;5134708;27;20122;-71
2020/12/12 03:55:02;;;;;;;67.82;17.88;;;;;;;0.97;79.78;94441.53;5134227;27;20051;-70
2020/12/12 03:57:28;;;;;;;70.18;18.98;;;;;;;0.96;79.74;94445.31;5134620;27;20043;-71
2020/12/12 03:59:54;;;;;;;64.65;18.35;;;;;;;0.97;79.78;94436.16;5134177;27;20043;-71
2020/12/12 04:02:20;;;;;;;63.15;17.98;;;;;;;0.96;79.90;94446.09;5134116;27;20047;-71
2020/12/12 04:04:47;;;;;;;71.40;17.77;;;;;;;1.01;79.84;94447.88;5134540;27;20084;-71
2020/12/12 04:07:13;;;;;;;61.78;17.67;;;;;;;1.02;79.87;94446.78;5134102;27;20043;-71
2020/12/12 04:09:39;;;;;;;66.78;18.08;;;;;;;1.07;79.67;94452.00;5134371;27;20039;-71
2020/12/12 04:12:05;;;;;;;71.78;18.50;;;;;;;1.06;79.67;94455.78;5133791;27;20502;-71
2020/12/12 04:14:31;;;;;;;67.07;18.42;;;;;;;1.04;79.81;94448.06;5134439;27;20122;-71
2020/12/12 04:16:57;;;;;;;63.63;17.33;;;;;;;0.99;79.79;94450.03;5134245;27;20042;-71
2020/12/12 04:19:23;;;;;;;73.70;18.80;;;;;;;0.96;80.01;94435.38;5133567;27;20410;-71
2020/12/12 04:21:50;;;;;;;60.40;17.10;;;;;;;0.93;79.99;94430.63;5134377;27;20076;-71
2020/12/12 04:24:16;;;;;;;68.13;17.67;;;;;;;0.89;80.23;94423.47;5133713;27;20047;-71
2020/12/12 04:26:42;;;;;;;65.55;18.98;;;;;;;0.90;80.24;94419.72;5134093;27;20047;-71
2020/12/12 04:29:08;;;;;;;70.40;18.17;;;;;;;0.89;80.34;94426.16;5132918;27;20043;-71
2020/12/12 04:31:34;;;;;;;67.63;18.02;;;;;;;0.91;80.30;94445.44;5133913;27;20046;-71
2020/12/12 04:34:01;;;;;;;55.90;19.20;;;;;;;0.85;80.57;94460.03;5133991;27;20546;-71
2020/12/12 04:36:29;;;;;;;72.03;19.00;;;;;;;0.96;80.59;94458.72;5133525;27;20045;-71
2020/12/12 04:38:56;;;;;;;64.05;19.75;;;;;;;1.02;80.46;94457.50;5133877;27;20054;-72
2020/12/12 04:41:22;;;;;;;74.35;18.27;;;;;;;1.04;80.15;94463.34;5133308;27;20053;-71
2020/12/12 04:43:49;;;;;;;70.05;18.95;;;;;;;1.07;80.16;94462.75;5133572;27;20039;-71
2020/12/12 04:46:16;;;;;;;67.32;18.88;;;;;;;1.04;80.20;94461.47;5133203;27;20039;-71
2020/12/12 04:48:42;;;;;;;63.10;18.30;;;;;;;1.05;80.04;94456.91;5133814;27;20040;-71
2020/12/12 04:51:08;;;;;;;70.30;19.10;;;;;;;1.09;80.12;94452.50;5132969;27;20051;-71
2020/12/12 04:53:34;;;;;;;61.50;16.40;;;;;;;1.17;79.95;94456.34;5133542;27;20045;-71
2020/12/12 04:56:04;;;;;;;70.68;18.23;;;;;;;1.21;79.78;94452.75;5133480;27;20506;-72
2020/12/12 04:58:32;;;;;;;67.80;18.15;;;;;;;1.17;79.76;94449.09;5132146;27;20082;-71
2020/12/12 05:00:58;;;;;;;63.95;18.85;;;;;;;1.13;79.65;94448.09;5133079;27;20039;-71
2020/12/12 05:03:26;;;;;;;66.95;18.17;;;;;;;1.16;79.73;94450.19;5133069;27;20043;-71
2020/12/12 05:05:52;;;;;;;66.90;19.60;;;;;;;1.17;79.69;94459.81;5133396;27;20048;-72
2020/12/12 05:08:19;;;;;;;62.60;18.38;;;;;;;1.17;79.71;94473.22;5132805;27;20043;-71
2020/12/12 05:10:46;;;;;;;68.97;19.38;;;;;;;1.19;79.92;94467.53;5133041;27;20039;-71
2020/12/12 05:13:18;;;;;;;60.65;17.33;;;;;;;1.26;79.86;94471.41;5132686;27;20035;-71
2020/12/12 05:15:45;;;;;;;70.55;18.65;;;;;;;1.30;79.69;94471.56;5133121;27;20038;-71
2020/12/12 05:18:11;;;;;;;64.72;18.83;;;;;;;1.32;79.58;94463.22;5132621;27;20050;-71
2020/12/12 05:20:38;;;;;;;70.45;19.55;;;;;;;1.35;79.50;94457.25;5133199;27;20051;-71
2020/12/12 05:23:11;;;;;;;56.88;19.30;;;;;;;1.39;79.40;94466.28;5132819;27;20073;-71
2020/12/12 05:25:37;;;;;;;75.63;18.00;;;;;;;1.41;79.27;94461.38;5133082;27;20039;-71
2020/12/12 05:28:04;;;;;;;70.07;18.45;;;;;;;1.41;78.98;94466.75;5132405;27;20046;-70
2020/12/12 05:30:32;;;;;;;74.60;19.02;;;;;;;1.40;79.04;94462.47;5132436;27;20047;-71
2020/12/12 05:32:58;;;;;;;61.30;16.90;;;;;;;1.42;78.99;94468.34;5132725;27;20050;-71
2020/12/12 05:35:24;;;;;;;65.03;17.17;;;;;;;1.41;78.76;94469.44;5132171;27;20039;-71
2020/12/12 05:37:51;;;;;;;64.57;18.20;;;;;;;1.37;78.96;94465.78;5132791;27;20096;-71
2020/12/12 05:40:17;;;;;;;63.35;17.70;;;;;;;1.35;78.88;94459.94;5132364;27;20405;-71
2020/12/12 05:42:43;;;;;;;58.92;17.55;;;;;;;1.36;79.18;94453.47;5132731;27;20043;-71
2020/12/12 05:45:09;;;;;;;72.50;20.88;;;;;;;1.33;78.97;94454.09;5132189;27;20074;-71
2020/12/12 05:47:36;;;;;;;68.85;18.98;;;;;;;1.33;79.05;94454.09;5132653;27;20493;-71
2020/12/12 05:50:03;;;;;;;66.40;17.75;;;;;;;1.33;79.11;94457.56;5132056;27;20525;-71
2020/12/12 05:52:29;;;;;;;63.17;18.88;;;;;;;1.32;79.21;94449.81;5132580;27;20058;-71
2020/12/12 05:54:55;;;;;;;80.55;20.95;;;;;;;1.32;79.01;94457.88;5132371;27;20039;-71
2020/12/12 05:57:22;;;;;;;63.45;18.85;;;;;;;1.33;79.07;94460.25;5131736;27;20152;-71
2020/12/12 05:59:48;;;;;;;77.13;20.25;;;;;;;1.34;79.05;94461.81;5131911;27;20060;-71
2020/12/12 06:02:16;;;;;;;65.40;18.80;;;;;;;1.39;79.08;94469.75;5131616;27;20064;-71
2020/12/12 06:04:49;;;;;;;65.90;18.77;;;;;;;1.44;78.89;94471.50;5132265;27;20035;-71
2020/12/12 06:07:26;;;;;;;66.90;19.45;;;;;;;1.43;78.92;94469.94;5131782;27;20152;-71
2020/12/12 06:09:57;;;;;;;67.93;19.00;;;;;;;1.43;78.85;94469.94;5131180;27;20039;-71
2020/12/12 06:12:23;;;;;;;60.75;19.13;;;;;;;1.40;78.83;94475.91;5131619;27;20707;-71
2020/12/12 06:14:53;;;;;;;70.57;19.35;;;;;;;1.47;78.90;94476.28;5131974;27;20058;-72
2020/12/12 06:17:30;;;;;;;60.90;18.38;;;;;;;1.49;78.80;94479.44;5131604;27;20047;-71
2020/12/12 06:19:59;;;;;;;66.60;17.95;;;;;;;1.48;78.68;94478.63;5131838;27;20043;-72
2020/12/12 06:22:26;;;;;;;65.80;17.48;;;;;;;1.46;78.50;94474.66;5131394;27;20039;-71
2020/12/12 06:24:59;;;;;;;69.30;17.88;;;;;;;1.47;78.44;94482.44;5131935;27;20050;-72
2020/12/12 06:27:29;;;;;;;67.57;18.27;;;;;;;1.48;78.32;94485.91;5131332;27;20046;-72
2020/12/12 06:29:56;;;;;;;73.35;18.45;;;;;;;1.50;78.47;94483.69;5129668;27;20542;-71
2020/12/12 06:32:22;;;;;;;66.57;18.27;;;;;;;1.53;78.05;94488.47;5131085;27;20046;-71
2020/12/12 06:34:50;;;;;;;73.60;19.20;;;;;;;1.51;78.04;94493.31;5131217;27;20510;-72
2020/12/12 06:37:25;;;;;;;66.22;19.40;;;;;;;1.47;78.16;94503.09;5131201;27;20082;-71
2020/12/12 06:39:52;;;;;;;77.18;19.05;;;;;;;1.48;78.13;94499.31;5131407;27;20066;-71
2020/12/12 06:42:33;;;;;;;66.72;19.55;;;;;;;1.49;78.12;94500.88;5131248;27;20124;-72
2020/12/12 06:45:00;;;;;;;66.68;18.98;;;;;;;1.48;78.29;94504.66;5131470;27;20043;-72
2020/12/12 06:47:37;;;;;;;64.10;19.13;;;;;;;1.43;78.25;94500.22;5131409;27;20039;-71
2020/12/12 06:50:12;;;;;;;67.30;20.60;;;;;;;1.39;78.40;94501.13;5130740;27;20559;-71
2020/12/12 06:52:41;;;;;;;75.82;22.10;;;;;;;1.38;78.29;94504.91;5131339;27;20110;-71
2020/12/12 06:55:09;;;;;;;80.80;21.92;;;;;;;1.34;78.33;94496.69;5130761;27;20434;-71
2020/12/12 06:57:37;;;;;;;116.18;23.92;;;;;;;1.34;78.31;94507.41;5130294;27;20039;-72
2020/12/12 07:00:06;;;;;;;82.50;21.02;;;;;;;1.31;78.41;94508.03;5110207;28;20104;-71
2020/12/12 07:02:32;;;;;;;71.43;20.15;;;;;;;1.33;78.45;94518.44;5110578;28;20038;-72
2020/12/12 07:05:19;;;;;;;76.18;21.80;;;;;;;1.40;78.27;94540.25;5110495;28;20057;-72
2020/12/12 07:07:46;;;;;;;80.05;22.00;;;;;;;1.34;78.22;94536.91;5110449;28;20072;-71
2020/12/12 07:10:12;;;;;;;62.95;19.80;;;;;;;1.36;78.55;94547.31;5110077;28;20048;-71
2020/12/12 07:12:39;;;;;;;73.45;22.52;;;;;;;1.39;78.13;94554.78;5110414;28;20044;-71
2020/12/12 07:15:05;;;;;;;80.47;22.70;;;;;;;1.42;78.39;94554.16;5109996;28;20047;-71
2020/12/12 07:17:32;;;;;;;72.07;20.40;;;;;;;1.45;78.45;94558.91;5110376;28;20040;-71
2020/12/12 07:19:58;;;;;;;70.38;20.45;;;;;;;1.48;78.04;94569.03;5110111;28;20531;-71
2020/12/12 07:22:24;;;;;;;69.40;20.38;;;;;;;1.44;77.86;94558.13;5109845;28;20407;-71
2020/12/12 07:24:51;;;;;;;69.57;20.75;;;;;;;1.46;78.15;94569.34;5110348;28;20044;-71
2020/12/12 07:27:17;;;;;;;68.57;21.27;;;;;;;1.47;78.15;94562.09;5109867;28;20044;-71
2020/12/12 07:29:43;;;;;;;70.90;20.50;;;;;;;1.49;78.20;94571.41;5128203;27;20553;-71
2020/12/12 07:32:09;;;;;;;85.20;21.00;;;;;;;1.52;78.29;94559.31;5129927;27;20040;-72
2020/12/12 07:34:35;;;;;;;87.22;21.63;;;;;;;1.56;78.35;94568.31;5116514;27;20048;-72
2020/12/12 07:37:03;;;;;;;79.35;21.17;;;;;;;1.58;78.14;94571.50;5106594;28;20058;-71
2020/12/12 07:39:30;;;;;;;91.40;22.02;;;;;;;1.59;78.21;94564.22;5107084;28;20046;-73
2020/12/12 07:41:59;;;;;;;105.68;22.25;;;;;;;1.62;78.05;94568.97;5105641;28;20051;-72
2020/12/12 07:44:26;;;;;;;96.55;22.45;;;;;;;1.63;78.12;94568.69;5106336;28;20470;-73
2020/12/12 07:46:57;;;;;;;90.70;23.13;;;;;;;1.67;77.95;94572.34;5106781;28;20054;-73
2020/12/12 07:49:23;;;;;;;79.75;21.15;;;;;;;1.69;77.86;94566.69;5106492;28;20588;-73
2020/12/12 07:52:01;;;;;;;80.70;22.10;;;;;;;1.71;77.84;94573.31;5106888;28;20051;-73
2020/12/12 07:54:36;;;;;;;89.85;23.67;;;;;;;1.77;77.80;94571.28;5106306;28;20043;-73
2020/12/12 07:57:04;;;;;;;91.03;23.17;;;;;;;1.81;77.78;94569.59;5106227;28;20054;-72
2020/12/12 07:59:31;;;;;;;95.85;23.85;;;;;;;1.83;77.95;94575.47;5090900;28;20058;-73
2020/12/12 08:02:01;;;;;;;91.90;23.25;;;;;;;1.89;77.74;94581.50;5086350;28;20052;-75
2020/12/12 08:04:27;;;;;;;110.30;25.70;;;;;;;1.93;77.77;94585.94;5085869;28;20055;-73
2020/12/12 08:06:53;;;;;;;92.60;23.33;;;;;;;2.00;77.58;94588.19;5086417;28;20048;-73
2020/12/12 08:09:20;;;;;;;86.03;22.27;;;;;;;2.04;77.20;94602.59;5085797;28;20048;-73
2020/12/12 08:11:55;;;;;;;102.10;23.48;;;;;;;2.08;77.07;94598.19;5086261;28;20048;-72
2020/12/12 08:14:22;;;;;;;97.53;23.30;;;;;;;2.12;77.24;94604.53;5085311;28;20399;-73
2020/12/12 08:16:53;;;;;;;95.20;23.90;;;;;;;2.14;77.29;94602.34;5086251;28;20586;-73
2020/12/12 08:19:19;;;;;;;85.47;23.35;;;;;;;2.20;77.38;94605.69;5086115;28;20051;-72
2020/12/12 08:21:49;;;;;;;93.35;24.38;;;;;;;2.20;77.00;94600.31;5086206;28;20047;-73
2020/12/12 08:24:16;;;;;;;94.47;25.13;;;;;;;2.20;76.81;94601.09;5085622;28;20058;-73
2020/12/12 08:26:42;;;;;;;109.13;27.25;;;;;;;2.21;76.82;94596.53;5086067;28;20051;-72
2020/12/12 08:29:09;;;;;;;89.45;24.15;;;;;;;2.20;76.57;94601.09;5086008;28;20411;-73
2020/12/12 08:31:40;;;;;;;98.07;23.50;;;;;;;2.18;76.18;94608.66;5085968;28;20486;-73
2020/12/12 08:34:07;;;;;;;81.40;23.85;;;;;;;2.18;76.31;94611.34;5096876;28;20051;-73
2020/12/12 08:36:35;;;;;;;88.95;24.35;;;;;;;2.20;76.00;94611.84;5110239;28;20237;-72
2020/12/12 08:39:05;;;;;;;103.80;24.55;;;;;;;2.27;76.20;94612.19;5109863;27;20043;-72
2020/12/12 08:41:33;;;;;;;93.80;24.25;;;;;;;2.27;76.47;94601.44;5120235;27;20054;-73
2020/12/12 08:43:59;;;;;;;90.30;23.15;;;;;;;2.31;76.56;94605.13;5130013;27;20055;-73
2020/12/12 08:46:25;;;;;;;95.22;22.30;;;;;;;2.33;76.19;94608.28;5130273;27;20047;-73
2020/12/12 08:48:54;;;;;;;97.22;23.33;;;;;;;2.32;76.19;94614.75;5130089;27;20155;-73
2020/12/12 08:51:25;;;;;;;107.10;23.80;;;;;;;2.36;75.88;94614.94;5128527;27;20062;-73
2020/12/12 08:53:51;;;;;;;100.03;23.13;;;;;;;2.38;75.83;94615.41;5129060;27;20039;-74
2020/12/12 08:56:25;;;;;;;96.15;22.65;;;;;;;2.45;76.13;94618.44;5129434;27;20046;-72
2020/12/12 08:58:54;;;;;;;86.78;23.45;;;;;;;2.49;76.11;94618.63;5129850;27;20619;-73
2020/12/12 09:01:23;;;;;;;100.30;22.45;;;;;;;2.52;76.08;94609.97;5127055;27;20557;-73
2020/12/12 09:04:14;;;;;;;109.18;23.15;;;;;;;2.50;75.65;94614.84;5128150;27;20051;-72
2020/12/12 09:06:57;;;;;;;87.63;21.02;;;;;;;2.47;75.35;94620.84;5129592;27;20035;-72
2020/12/12 09:09:24;;;;;;;91.47;21.40;;;;;;;2.44;75.23;94621.44;5129325;27;20375;-73
2020/12/12 09:11:56;;;;;;;89.80;22.33;;;;;;;2.49;75.70;94624.00;5129027;27;20584;-73
2020/12/12 09:14:23;;;;;;;87.43;22.10;;;;;;;2.53;75.96;94624.97;5129107;27;20047;-72
2020/12/12 09:16:51;;;;;;;90.47;22.85;;;;;;;2.55;75.84;94638.88;5130128;27;20062;-72
2020/12/12 09:19:19;;;;;;;83.68;20.85;;;;;;;2.55;75.58;94633.50;5129680;27;20047;-72
2020/12/12 09:21:45;;;;;;;80.65;19.45;;;;;;;2.53;75.57;94641.09;5130091;27;20047;-72
2020/12/12 09:24:12;;;;;;;78.72;21.40;;;;;;;2.54;75.31;94642.66;5129299;27;20059;-72
2020/12/12 09:26:38;;;;;;;92.28;21.30;;;;;;;2.49;75.51;94646.28;5129908;27;20492;-72
2020/12/12 09:29:04;;;;;;;86.82;21.45;;;;;;;2.48;76.38;94643.91;5129290;27;20047;-72
2020/12/12 09:31:30;;;;;;;89.63;21.67;;;;;;;2.45;76.73;94647.19;5129772;27;20047;-72
2020/12/12 09:33:56;;;;;;;90.18;22.20;;;;;;;2.44;77.21;94642.94;5129189;27;20055;-72
2020/12/12 09:36:24;;;;;;;93.30;22.13;;;;;;;2.44;77.53;94653.69;5129243;27;20051;-72
2020/12/12 09:38:50;;;;;;;83.63;21.98;;;;;;;2.45;77.58;94656.06;5129814;27;20043;-72
2020/12/12 09:41:16;;;;;;;83.80;21.50;;;;;;;2.40;77.64;94658.06;5129204;27;20059;-72
2020/12/12 09:43:42;;;;;;;95.93;22.60;;;;;;;2.31;77.83;94658.03;5129252;27;20167;-72
2020/12/12 09:46:09;;;;;;;85.75;22.20;;;;;;;2.24;77.98;94655.78;5129258;27;20062;-72
2020/12/12 09:48:36;;;;;;;108.82;24.58;;;;;;;2.23;78.51;94659.56;5129718;27;20065;-73
2020/12/12 09:51:03;;;;;;;89.82;23.02;;;;;;;2.24;78.97;94658.44;5129013;27;20055;-72
2020/12/12 09:53:30;;;;;;;95.85;23.77;;;;;;;2.25;79.21;94657.38;5128955;27;20051;-73
2020/12/12 09:55:56;;;;;;;98.75;24.50;;;;;;;2.28;79.42;94656.75;5129079;27;20424;-72
2020/12/12 09:58:23;;;;;;;100.15;25.83;;;;;;;2.24;79.27;94676.47;5128606;27;20043;-73
2020/12/12 10:00:49;;;;;;;92.80;23.45;;;;;;;2.19;78.74;94669.31;5129231;27;20057;-73
2020/12/12 10:03:16;;;;;;;89.97;23.48;;;;;;;2.28;79.21;94664.81;5128517;27;20055;-73
2020/12/12 10:05:42;;;;;;;93.50;23.33;;;;;;;2.32;79.38;94668.47;5129190;27;20047;-73
2020/12/12 10:08:08;;;;;;;90.35;22.65;;;;;;;2.43;79.75;94673.59;5128583;27;20123;-72
2020/12/12 10:10:35;;;;;;;96.32;22.65;;;;;;;2.47;80.00;94672.66;5128620;27;20554;-72
2020/12/12 10:13:01;;;;;;;95.40;22.63;;;;;;;2.51;79.89;94670.19;5128441;27;20066;-71
2020/12/12 10:15:28;;;;;;;102.60;21.77;;;;;;;2.53;79.69;94676.81;5128000;27;20055;-72
2020/12/12 10:17:54;;;;;;;91.40;21.67;;;;;;;2.56;79.57;94678.91;5128770;27;20043;-71
2020/12/12 10:20:21;;;;;;;89.80;21.58;;;;;;;2.61;79.74;94681.44;5128032;27;21139;-72
2020/12/12 10:22:48;;;;;;;97.63;22.98;;;;;;;2.68;79.43;94685.59;5128579;27;20051;-72
2020/12/12 10:25:14;;;;;;;89.22;21.52;;;;;;;2.72;78.94;94697.31;5128229;27;20046;-72
2020/12/12 10:27:43;;;;;;;97.03;23.83;;;;;;;2.72;78.39;94686.56;5128512;27;20058;-73
2020/12/12 10:30:11;;;;;;;76.40;19.58;;;;;;;2.84;79.01;94684.09;5128270;27;20161;-72
2020/12/12 10:32:38;;;;;;;107.53;21.83;;;;;;;2.84;78.74;94687.56;5127746;27;20057;-72
2020/12/12 10:35:05;;;;;;;77.63;20.27;;;;;;;2.91;79.14;94679.03;5127628;27;20054;-73
2020/12/12 10:37:31;;;;;;;69.47;21.20;;;;;;;2.86;78.71;94679.97;5127714;27;20043;-72
2020/12/12 10:40:03;;;;;;;86.97;20.95;;;;;;;2.87;78.73;94678.88;5128411;27;20051;-72
2020/12/12 10:42:30;;;;;;;74.47;20.10;;;;;;;2.95;78.80;94696.16;5127914;27;20118;-72
2020/12/12 10:44:56;;;;;;;84.40;20.35;;;;;;;2.83;78.01;94698.63;5128085;27;20046;-72
2020/12/12 10:47:23;;;;;;;76.15;20.75;;;;;;;2.83;78.56;94698.63;5127806;27;20498;-72
2020/12/12 10:49:48;;;;;;;70.97;20.33;;;;;;;2.82;78.79;94697.84;5127712;27;20733;-72
2020/12/12 10:52:14;;;;;;;73.90;19.05;;;;;;;2.81;79.42;94690.84;5127473;27;20052;-72
2020/12/12 10:54:45;;;;;;;76.35;21.83;;;;;;;2.84;79.48;94690.25;5127245;27;20042;-72
2020/12/12 10:57:11;;;;;;;74.85;20.42;;;;;;;2.92;79.85;94690.59;5127862;27;20043;-72
2020/12/12 10:59:37;;;;;;;87.93;21.85;;;;;;;2.90;80.16;94690.91;5127351;27;20051;-74
2020/12/12 11:02:08;;;;;;;93.30;24.90;;;;;;;2.90;80.57;94687.44;5127015;27;20054;-72
2020/12/12 11:04:35;;;;;;;98.95;24.08;;;;;;;2.94;80.87;94688.41;5127586;27;20130;-74
2020/12/12 11:07:01;;;;;;;84.03;24.77;;;;;;;2.99;80.95;94691.75;5127306;27;20116;-72
2020/12/12 11:09:27;;;;;;;92.90;21.92;;;;;;;3.02;81.02;94703.75;5127332;27;20057;-75
2020/12/12 11:11:56;;;;;;;88.45;22.25;;;;;;;3.05;81.25;94700.47;5127220;27;20089;-74
2020/12/12 11:14:24;;;;;;;81.55;21.65;;;;;;;3.06;81.22;94688.59;5126724;27;20130;-75
2020/12/12 11:16:50;;;;;;;91.00;23.02;;;;;;;3.11;81.13;94683.88;5127142;27;20043;-73
2020/12/12 11:19:17;;;;;;;88.07;23.08;;;;;;;3.14;81.42;94688.63;5126805;27;20139;-74
2020/12/12 11:21:44;;;;;;;74.70;21.73;;;;;;;3.11;81.37;94666.94;5127308;27;20142;-74
2020/12/12 11:24:10;;;;;;;93.40;22.90;;;;;;;3.06;81.65;94667.09;5126071;27;20563;-74